Aktuell sind 1391 Gäste und ein Mitglied online

[source: ADDS]
METAR
EDVE 170850Z VRB05KT 9999 26/12 Q1013

EDDV 170850Z VRB03KT 9999 FEW048 BKN300 26/15 Q1013 NOSIG

ETHS 170820Z 01005KT 9999 FEW050 SCT320 26/12 Q1013 BLU+BLU+

ETHC 170820Z 27004KT 9999 FEW040 BKN320 26/14 Q1013 BLACKBLU+BLU+

EDVK 170850Z 01004KT 290V070 CAVOK 25/10 Q1014

TAF
TAF EDVE 170800Z 1709/1718 33007KT CAVOK

TAF EDDV 170500Z 1706/1806 VRB01KT CAVOK BECMG 1710/1712 30006KT

TAF ETHS 170727Z 1708/1717 31005KT 9999 NSW SCT300

TAF ETHC 170704Z 1708/1717 27007KT 9999 NSW FEW060 SCT280

TAF EDVK 170800Z 1709/1718 VRB03KT CAVOK BECMG 1709/1711 30009KT

SR / SS: 03:17 / 19:30 UTC (EDVE 2018-07-17)
Herzlich willkommen bei der FFG: William, Ralf, Stefan, Hermann.... +++ Miroslaw und David haben sich Freigeflogen! +++ Dirk hat seinen ersten Alleinflug absolviert. Glückwunsch! +++ Entscheid Mitgliederversammlung: FFG wächst weiter und ordert eine neue Aquila A211 👍

wenig -> mittel -> viel

Professionelle Piloten arbeiten mit Checkliste
Ausdrucken und abarbeiten! Vorbereitete Links helfen bei der Beschaffung der notwendigen Informationen.

Weiterlesen ...

 Zugang zur DFS. Auf dem FFG-Account sind alle erforderlichen Daten unserer Maschinen hinterlegt. Jedes Mitglied hat hier volle Rechte! Zugangsdaten gibt es im Internen Bereich.

Hier gibt es die AIP mit allen erforderlichen Karten die im Abo der FFG liegen zum Download für unsere Mitglieder.

Letztes NOTAM EDVE
von 21.07.2018 0400Z bis 28.09.2018 1800Z
DAILY 0400-1800 EXC SAT SUN HOL OCA(H) VALUES RAISED AS FOLLOWS: LNAV/VNAV RWY 08: ACFT CATEGORY C 555 (282) FT LNAV/VNAV RWY 08: ACF [more]

Letztes NOTAM EDBC
von 25.06.2018 0728Z bis 29.07.2018 2359Z
COCHSTEDT DME COD 113.35/CH80Y OUT OF SERVICE.

Letztes NOTAM EDVM
von 08.08.2018 1800Z bis 15.08.2018 0700Z
AD CLSD DUE TO EVENT.

Letztes NOTAM EDOV
von 30.07.2018 1000Z bis 09.08.2018 1700Z
DAILY 1000-1700
AERODROME AVBL PPR 2 HOURS IN ADVANCE DUE TO INTENSIVE GLIDER ACTIVITY APPROXIMATELY 3NM AROUND AIRFIELD.

Letztes NOTAM EDDV
von 14.07.2018 2140Z bis 13.10.2018 2100Z
MON-FRI 0500-1800
OBSTACLE CLEARANCE SURFACE PENETRATED BY MOBILE CRANES PSN BETWEEN 600M AND 800M BEYOND THR 09R, BETWEEN 400M AN [more]


Letztes NOTAM EDVK
von 07.04.2016 0530Z bis PERM
HEL LDG/DEP HEL AREA SOUTH HAVE TO AVOID TO OVERFLY THE CAMP SW OF HELIPORT.) DUPE

          aerodata150     Radio38